sensor_id;sensor_type;location;lat;lon;timestamp;P1;durP1;ratioP1;P2;durP2;ratioP2
47161;SDS011;32921;53.256;8.198;2023-02-01T00:01:44;40.15;;;5.15;;
47161;SDS011;32921;53.256;8.198;2023-02-01T00:04:10;24.77;;;3.70;;
47161;SDS011;32921;53.256;8.198;2023-02-01T00:06:36;36.95;;;5.00;;
47161;SDS011;32921;53.256;8.198;2023-02-01T00:09:02;27.58;;;4.70;;
47161;SDS011;32921;53.256;8.198;2023-02-01T00:11:28;32.38;;;5.93;;
47161;SDS011;32921;53.256;8.198;2023-02-01T00:13:53;39.90;;;6.82;;
47161;SDS011;32921;53.256;8.198;2023-02-01T00:16:21;25.30;;;4.38;;
47161;SDS011;32921;53.256;8.198;2023-02-01T00:18:59;42.70;;;5.07;;
47161;SDS011;32921;53.256;8.198;2023-02-01T00:21:25;33.03;;;5.72;;
47161;SDS011;32921;53.256;8.198;2023-02-01T00:23:51;37.90;;;5.15;;
47161;SDS011;32921;53.256;8.198;2023-02-01T00:26:20;33.90;;;5.78;;
47161;SDS011;32921;53.256;8.198;2023-02-01T00:28:54;47.33;;;6.38;;
47161;SDS011;32921;53.256;8.198;2023-02-01T00:31:20;42.03;;;6.25;;
47161;SDS011;32921;53.256;8.198;2023-02-01T00:33:48;38.78;;;5.63;;
47161;SDS011;32921;53.256;8.198;2023-02-01T00:36:14;32.63;;;5.15;;
47161;SDS011;32921;53.256;8.198;2023-02-01T00:38:40;35.25;;;5.47;;
47161;SDS011;32921;53.256;8.198;2023-02-01T00:41:07;34.45;;;5.18;;
47161;SDS011;32921;53.256;8.198;2023-02-01T00:43:37;36.25;;;4.38;;
47161;SDS011;32921;53.256;8.198;2023-02-01T00:46:03;35.38;;;5.18;;
47161;SDS011;32921;53.256;8.198;2023-02-01T00:48:29;35.45;;;4.50;;
47161;SDS011;32921;53.256;8.198;2023-02-01T00:50:58;31.05;;;5.00;;
47161;SDS011;32921;53.256;8.198;2023-02-01T00:53:29;29.33;;;4.88;;
47161;SDS011;32921;53.256;8.198;2023-02-01T00:55:54;39.22;;;6.22;;
47161;SDS011;32921;53.256;8.198;2023-02-01T00:58:21;37.40;;;5.07;;
47161;SDS011;32921;53.256;8.198;2023-02-01T01:00:49;35.58;;;6.60;;
47161;SDS011;32921;53.256;8.198;2023-02-01T01:03:14;34.42;;;5.40;;
47161;SDS011;32921;53.256;8.198;2023-02-01T01:05:46;36.05;;;5.13;;
47161;SDS011;32921;53.256;8.198;2023-02-01T01:08:13;28.02;;;5.20;;
47161;SDS011;32921;53.256;8.198;2023-02-01T01:10:40;33.58;;;4.95;;
47161;SDS011;32921;53.256;8.198;2023-02-01T01:13:05;23.55;;;4.20;;
47161;SDS011;32921;53.256;8.198;2023-02-01T01:15:35;37.47;;;4.97;;
47161;SDS011;32921;53.256;8.198;2023-02-01T01:18:01;31.23;;;4.30;;
47161;SDS011;32921;53.256;8.198;2023-02-01T01:20:27;30.58;;;4.82;;
47161;SDS011;32921;53.256;8.198;2023-02-01T01:22:52;25.98;;;4.65;;
47161;SDS011;32921;53.256;8.198;2023-02-01T01:25:18;28.38;;;4.93;;
47161;SDS011;32921;53.256;8.198;2023-02-01T01:27:43;33.80;;;5.53;;
47161;SDS011;32921;53.256;8.198;2023-02-01T01:30:09;32.83;;;5.35;;
47161;SDS011;32921;53.256;8.198;2023-02-01T01:32:44;30.50;;;5.03;;
47161;SDS011;32921;53.256;8.198;2023-02-01T01:35:09;28.00;;;3.60;;
47161;SDS011;32921;53.256;8.198;2023-02-01T01:37:35;31.42;;;5.25;;
47161;SDS011;32921;53.256;8.198;2023-02-01T01:40:02;30.85;;;5.28;;
47161;SDS011;32921;53.256;8.198;2023-02-01T01:42:28;27.13;;;4.80;;
47161;SDS011;32921;53.256;8.198;2023-02-01T01:47:52;23.50;;;3.05;;
47161;SDS011;32921;53.256;8.198;2023-02-01T01:50:23;30.55;;;4.18;;
47161;SDS011;32921;53.256;8.198;2023-02-01T01:52:55;29.52;;;5.40;;
47161;SDS011;32921;53.256;8.198;2023-02-01T01:55:24;35.15;;;4.93;;
47161;SDS011;32921;53.256;8.198;2023-02-01T01:57:53;32.53;;;4.85;;
47161;SDS011;32921;53.256;8.198;2023-02-01T02:00:36;24.25;;;4.13;;
47161;SDS011;32921;53.256;8.198;2023-02-01T02:03:11;25.77;;;3.95;;
47161;SDS011;32921;53.256;8.198;2023-02-01T02:05:45;33.25;;;4.43;;
47161;SDS011;32921;53.256;8.198;2023-02-01T02:08:12;22.95;;;4.20;;
47161;SDS011;32921;53.256;8.198;2023-02-01T02:10:38;32.53;;;4.85;;
47161;SDS011;32921;53.256;8.198;2023-02-01T02:13:23;33.42;;;4.60;;
47161;SDS011;32921;53.256;8.198;2023-02-01T02:16:04;29.52;;;4.38;;
47161;SDS011;32921;53.256;8.198;2023-02-01T02:33:37;41.00;;;5.45;;
47161;SDS011;32921;53.256;8.198;2023-02-01T02:44:44;31.10;;;4.00;;
47161;SDS011;32921;53.256;8.198;2023-02-01T02:48:09;33.45;;;4.50;;
47161;SDS011;32921;53.256;8.198;2023-02-01T02:50:58;23.13;;;3.42;;
47161;SDS011;32921;53.256;8.198;2023-02-01T02:53:50;28.05;;;4.13;;
47161;SDS011;32921;53.256;8.198;2023-02-01T02:56:35;16.02;;;2.85;;
47161;SDS011;32921;53.256;8.198;2023-02-01T02:59:21;26.30;;;3.53;;
47161;SDS011;32921;53.256;8.198;2023-02-01T03:02:09;30.20;;;4.72;;
47161;SDS011;32921;53.256;8.198;2023-02-01T03:04:55;28.95;;;4.28;;
47161;SDS011;32921;53.256;8.198;2023-02-01T03:10:56;32.35;;;4.63;;
47161;SDS011;32921;53.256;8.198;2023-02-01T03:12:54;29.92;;;4.70;;
47161;SDS011;32921;53.256;8.198;2023-02-01T03:15:36;38.47;;;5.45;;
47161;SDS011;32921;53.256;8.198;2023-02-01T03:18:31;39.08;;;5.15;;
47161;SDS011;32921;53.256;8.198;2023-02-01T03:21:08;24.55;;;4.22;;
47161;SDS011;32921;53.256;8.198;2023-02-01T03:23:37;28.67;;;4.20;;
47161;SDS011;32921;53.256;8.198;2023-02-01T03:26:04;26.98;;;3.97;;
47161;SDS011;32921;53.256;8.198;2023-02-01T03:28:34;28.17;;;3.63;;
47161;SDS011;32921;53.256;8.198;2023-02-01T03:31:01;31.77;;;4.55;;
47161;SDS011;32921;53.256;8.198;2023-02-01T03:33:27;30.48;;;4.38;;
47161;SDS011;32921;53.256;8.198;2023-02-01T03:43:55;18.50;;;3.13;;
47161;SDS011;32921;53.256;8.198;2023-02-01T03:46:45;20.65;;;2.67;;
47161;SDS011;32921;53.256;8.198;2023-02-01T03:49:13;18.80;;;3.08;;
47161;SDS011;32921;53.256;8.198;2023-02-01T03:51:44;20.30;;;3.10;;
47161;SDS011;32921;53.256;8.198;2023-02-01T03:54:18;16.88;;;2.83;;
47161;SDS011;32921;53.256;8.198;2023-02-01T03:56:45;19.73;;;2.70;;
47161;SDS011;32921;53.256;8.198;2023-02-01T03:59:12;27.00;;;3.97;;
47161;SDS011;32921;53.256;8.198;2023-02-01T04:01:39;22.92;;;3.25;;
47161;SDS011;32921;53.256;8.198;2023-02-01T04:04:05;26.80;;;4.03;;
47161;SDS011;32921;53.256;8.198;2023-02-01T04:06:31;27.98;;;3.78;;
47161;SDS011;32921;53.256;8.198;2023-02-01T04:08:57;32.67;;;4.75;;
47161;SDS011;32921;53.256;8.198;2023-02-01T04:11:22;34.92;;;4.25;;
47161;SDS011;32921;53.256;8.198;2023-02-01T04:13:48;21.27;;;3.50;;
47161;SDS011;32921;53.256;8.198;2023-02-01T04:16:13;32.33;;;5.30;;
47161;SDS011;32921;53.256;8.198;2023-02-01T04:18:39;34.40;;;5.47;;
47161;SDS011;32921;53.256;8.198;2023-02-01T04:21:05;38.70;;;4.68;;
47161;SDS011;32921;53.256;8.198;2023-02-01T04:23:30;31.70;;;6.28;;
47161;SDS011;32921;53.256;8.198;2023-02-01T04:26:00;34.75;;;5.15;;
47161;SDS011;32921;53.256;8.198;2023-02-01T04:28:26;28.88;;;4.93;;
47161;SDS011;32921;53.256;8.198;2023-02-01T04:30:52;46.20;;;5.53;;
47161;SDS011;32921;53.256;8.198;2023-02-01T04:33:18;45.30;;;5.30;;
47161;SDS011;32921;53.256;8.198;2023-02-01T04:35:43;30.05;;;5.03;;
47161;SDS011;32921;53.256;8.198;2023-02-01T04:38:09;39.28;;;5.20;;
47161;SDS011;32921;53.256;8.198;2023-02-01T04:40:34;30.20;;;4.63;;
47161;SDS011;32921;53.256;8.198;2023-02-01T04:43:02;23.75;;;4.18;;
47161;SDS011;32921;53.256;8.198;2023-02-01T04:45:28;31.95;;;5.03;;
47161;SDS011;32921;53.256;8.198;2023-02-01T04:47:54;27.42;;;5.05;;
47161;SDS011;32921;53.256;8.198;2023-02-01T04:50:19;27.15;;;4.38;;
47161;SDS011;32921;53.256;8.198;2023-02-01T04:52:45;42.40;;;5.55;;
47161;SDS011;32921;53.256;8.198;2023-02-01T04:55:11;34.22;;;4.82;;
47161;SDS011;32921;53.256;8.198;2023-02-01T04:57:38;25.63;;;3.92;;
47161;SDS011;32921;53.256;8.198;2023-02-01T05:00:07;24.92;;;3.30;;
47161;SDS011;32921;53.256;8.198;2023-02-01T05:02:35;24.27;;;4.35;;
47161;SDS011;32921;53.256;8.198;2023-02-01T05:05:00;18.25;;;3.80;;
47161;SDS011;32921;53.256;8.198;2023-02-01T05:07:26;22.95;;;3.78;;
47161;SDS011;32921;53.256;8.198;2023-02-01T05:09:52;21.95;;;3.60;;
47161;SDS011;32921;53.256;8.198;2023-02-01T05:12:17;14.48;;;2.75;;
47161;SDS011;32921;53.256;8.198;2023-02-01T05:15:03;22.58;;;3.85;;
47161;SDS011;32921;53.256;8.198;2023-02-01T05:17:29;19.88;;;3.05;;
47161;SDS011;32921;53.256;8.198;2023-02-01T05:19:55;24.23;;;3.53;;
47161;SDS011;32921;53.256;8.198;2023-02-01T05:22:21;24.52;;;4.45;;
47161;SDS011;32921;53.256;8.198;2023-02-01T05:24:46;25.30;;;4.47;;
47161;SDS011;32921;53.256;8.198;2023-02-01T05:27:12;21.63;;;3.88;;
47161;SDS011;32921;53.256;8.198;2023-02-01T05:29:37;19.65;;;4.00;;
47161;SDS011;32921;53.256;8.198;2023-02-01T05:32:03;25.77;;;4.90;;
47161;SDS011;32921;53.256;8.198;2023-02-01T05:34:29;22.55;;;3.90;;
47161;SDS011;32921;53.256;8.198;2023-02-01T05:36:54;23.15;;;3.67;;
47161;SDS011;32921;53.256;8.198;2023-02-01T05:39:20;19.40;;;3.65;;
47161;SDS011;32921;53.256;8.198;2023-02-01T05:41:45;25.58;;;4.50;;
47161;SDS011;32921;53.256;8.198;2023-02-01T05:44:11;29.15;;;3.58;;
47161;SDS011;32921;53.256;8.198;2023-02-01T05:46:37;26.73;;;4.07;;
47161;SDS011;32921;53.256;8.198;2023-02-01T05:49:03;20.30;;;3.50;;
47161;SDS011;32921;53.256;8.198;2023-02-01T05:51:29;31.02;;;5.05;;
47161;SDS011;32921;53.256;8.198;2023-02-01T05:53:54;34.00;;;4.57;;
47161;SDS011;32921;53.256;8.198;2023-02-01T05:56:20;35.97;;;5.25;;
47161;SDS011;32921;53.256;8.198;2023-02-01T05:58:46;27.75;;;4.65;;
47161;SDS011;32921;53.256;8.198;2023-02-01T06:01:11;29.08;;;4.80;;
47161;SDS011;32921;53.256;8.198;2023-02-01T06:03:37;30.25;;;5.20;;
47161;SDS011;32921;53.256;8.198;2023-02-01T06:06:02;35.40;;;4.28;;
47161;SDS011;32921;53.256;8.198;2023-02-01T06:08:29;31.90;;;3.83;;
47161;SDS011;32921;53.256;8.198;2023-02-01T06:10:58;23.52;;;3.90;;
47161;SDS011;32921;53.256;8.198;2023-02-01T06:13:24;21.17;;;3.25;;
47161;SDS011;32921;53.256;8.198;2023-02-01T06:15:50;39.25;;;5.10;;
47161;SDS011;32921;53.256;8.198;2023-02-01T06:18:16;30.33;;;4.95;;
47161;SDS011;32921;53.256;8.198;2023-02-01T06:20:41;21.35;;;3.42;;
47161;SDS011;32921;53.256;8.198;2023-02-01T06:23:07;30.00;;;3.85;;
47161;SDS011;32921;53.256;8.198;2023-02-01T06:25:33;28.65;;;4.40;;
47161;SDS011;32921;53.256;8.198;2023-02-01T06:28:01;28.35;;;3.85;;
47161;SDS011;32921;53.256;8.198;2023-02-01T06:30:28;21.38;;;3.50;;
47161;SDS011;32921;53.256;8.198;2023-02-01T06:32:53;28.15;;;4.45;;
47161;SDS011;32921;53.256;8.198;2023-02-01T06:35:19;25.85;;;4.28;;
47161;SDS011;32921;53.256;8.198;2023-02-01T06:37:44;20.70;;;3.97;;
47161;SDS011;32921;53.256;8.198;2023-02-01T06:40:10;29.92;;;4.78;;
47161;SDS011;32921;53.256;8.198;2023-02-01T06:42:36;30.77;;;4.55;;
47161;SDS011;32921;53.256;8.198;2023-02-01T06:45:02;30.45;;;5.25;;
47161;SDS011;32921;53.256;8.198;2023-02-01T06:47:28;34.75;;;4.35;;
47161;SDS011;32921;53.256;8.198;2023-02-01T06:49:53;29.58;;;4.18;;
47161;SDS011;32921;53.256;8.198;2023-02-01T06:52:19;34.42;;;5.28;;
47161;SDS011;32921;53.256;8.198;2023-02-01T06:54:44;34.40;;;4.55;;
47161;SDS011;32921;53.256;8.198;2023-02-01T06:57:10;40.38;;;6.30;;
47161;SDS011;32921;53.256;8.198;2023-02-01T06:59:36;37.97;;;6.00;;
47161;SDS011;32921;53.256;8.198;2023-02-01T07:02:02;30.20;;;4.78;;
47161;SDS011;32921;53.256;8.198;2023-02-01T07:04:27;38.47;;;5.68;;
47161;SDS011;32921;53.256;8.198;2023-02-01T07:06:53;49.38;;;6.53;;
47161;SDS011;32921;53.256;8.198;2023-02-01T07:09:18;39.38;;;5.50;;
47161;SDS011;32921;53.256;8.198;2023-02-01T07:11:44;40.72;;;6.63;;
47161;SDS011;32921;53.256;8.198;2023-02-01T07:14:10;29.83;;;4.38;;
47161;SDS011;32921;53.256;8.198;2023-02-01T07:16:35;35.97;;;4.68;;
47161;SDS011;32921;53.256;8.198;2023-02-01T07:19:01;32.75;;;5.07;;
47161;SDS011;32921;53.256;8.198;2023-02-01T07:21:27;19.63;;;2.67;;
47161;SDS011;32921;53.256;8.198;2023-02-01T07:23:53;36.53;;;5.25;;
47161;SDS011;32921;53.256;8.198;2023-02-01T07:26:19;40.20;;;5.28;;
47161;SDS011;32921;53.256;8.198;2023-02-01T07:28:45;35.65;;;6.05;;
47161;SDS011;32921;53.256;8.198;2023-02-01T07:31:12;40.03;;;6.85;;
47161;SDS011;32921;53.256;8.198;2023-02-01T07:33:45;39.58;;;5.50;;
47161;SDS011;32921;53.256;8.198;2023-02-01T07:36:12;47.67;;;5.68;;
47161;SDS011;32921;53.256;8.198;2023-02-01T07:38:40;29.15;;;4.05;;
47161;SDS011;32921;53.256;8.198;2023-02-01T07:41:06;30.38;;;4.47;;
47161;SDS011;32921;53.256;8.198;2023-02-01T07:43:32;32.28;;;5.20;;
47161;SDS011;32921;53.256;8.198;2023-02-01T07:45:58;25.63;;;4.50;;
47161;SDS011;32921;53.256;8.198;2023-02-01T07:48:24;41.63;;;6.13;;
47161;SDS011;32921;53.256;8.198;2023-02-01T07:51:01;34.33;;;5.28;;
47161;SDS011;32921;53.256;8.198;2023-02-01T07:53:33;34.95;;;5.20;;
47161;SDS011;32921;53.256;8.198;2023-02-01T07:55:59;28.85;;;4.80;;
47161;SDS011;32921;53.256;8.198;2023-02-01T07:58:26;40.63;;;5.93;;
47161;SDS011;32921;53.256;8.198;2023-02-01T08:00:52;43.08;;;5.72;;
47161;SDS011;32921;53.256;8.198;2023-02-01T08:03:37;36.20;;;4.38;;
47161;SDS011;32921;53.256;8.198;2023-02-01T08:06:03;33.60;;;4.78;;
47161;SDS011;32921;53.256;8.198;2023-02-01T08:08:29;31.05;;;4.10;;
47161;SDS011;32921;53.256;8.198;2023-02-01T08:10:59;25.98;;;4.60;;
47161;SDS011;32921;53.256;8.198;2023-02-01T08:13:25;29.23;;;3.60;;
47161;SDS011;32921;53.256;8.198;2023-02-01T08:15:51;39.05;;;5.20;;
47161;SDS011;32921;53.256;8.198;2023-02-01T08:18:16;44.92;;;5.32;;
47161;SDS011;32921;53.256;8.198;2023-02-01T08:20:43;26.08;;;3.67;;
47161;SDS011;32921;53.256;8.198;2023-02-01T08:23:10;28.55;;;4.90;;
47161;SDS011;32921;53.256;8.198;2023-02-01T08:25:37;32.28;;;4.78;;
47161;SDS011;32921;53.256;8.198;2023-02-01T08:28:04;32.40;;;4.60;;
47161;SDS011;32921;53.256;8.198;2023-02-01T08:30:30;27.50;;;4.32;;
47161;SDS011;32921;53.256;8.198;2023-02-01T08:32:56;31.77;;;4.32;;
47161;SDS011;32921;53.256;8.198;2023-02-01T08:35:22;21.77;;;3.30;;
47161;SDS011;32921;53.256;8.198;2023-02-01T08:37:49;34.70;;;4.65;;
47161;SDS011;32921;53.256;8.198;2023-02-01T08:40:15;33.38;;;4.53;;
47161;SDS011;32921;53.256;8.198;2023-02-01T08:42:41;36.50;;;4.07;;
47161;SDS011;32921;53.256;8.198;2023-02-01T08:45:22;17.50;;;3.65;;
47161;SDS011;32921;53.256;8.198;2023-02-01T08:47:52;26.80;;;4.45;;
47161;SDS011;32921;53.256;8.198;2023-02-01T08:50:18;30.15;;;4.68;;
47161;SDS011;32921;53.256;8.198;2023-02-01T08:52:45;35.00;;;5.00;;
47161;SDS011;32921;53.256;8.198;2023-02-01T08:55:12;27.95;;;4.55;;
47161;SDS011;32921;53.256;8.198;2023-02-01T08:57:38;45.83;;;6.18;;
47161;SDS011;32921;53.256;8.198;2023-02-01T09:00:04;37.45;;;5.15;;
47161;SDS011;32921;53.256;8.198;2023-02-01T09:02:32;36.10;;;5.07;;
47161;SDS011;32921;53.256;8.198;2023-02-01T09:04:57;32.20;;;4.47;;
47161;SDS011;32921;53.256;8.198;2023-02-01T09:07:23;24.73;;;4.03;;
47161;SDS011;32921;53.256;8.198;2023-02-01T09:09:48;32.15;;;5.03;;
47161;SDS011;32921;53.256;8.198;2023-02-01T09:12:14;19.33;;;4.47;;
47161;SDS011;32921;53.256;8.198;2023-02-01T09:14:39;32.08;;;4.07;;
47161;SDS011;32921;53.256;8.198;2023-02-01T09:17:05;24.60;;;4.10;;
47161;SDS011;32921;53.256;8.198;2023-02-01T09:19:31;32.13;;;4.65;;
47161;SDS011;32921;53.256;8.198;2023-02-01T09:21:57;34.03;;;4.80;;
47161;SDS011;32921;53.256;8.198;2023-02-01T09:24:23;24.48;;;3.17;;
47161;SDS011;32921;53.256;8.198;2023-02-01T09:26:48;26.27;;;3.83;;
47161;SDS011;32921;53.256;8.198;2023-02-01T09:29:15;41.22;;;5.07;;
47161;SDS011;32921;53.256;8.198;2023-02-01T09:31:41;32.38;;;4.68;;
47161;SDS011;32921;53.256;8.198;2023-02-01T09:34:07;38.13;;;5.07;;
47161;SDS011;32921;53.256;8.198;2023-02-01T09:36:33;34.08;;;5.45;;
47161;SDS011;32921;53.256;8.198;2023-02-01T09:38:59;17.55;;;3.17;;
47161;SDS011;32921;53.256;8.198;2023-02-01T09:46:57;28.38;;;4.53;;
47161;SDS011;32921;53.256;8.198;2023-02-01T09:49:29;28.45;;;4.07;;
47161;SDS011;32921;53.256;8.198;2023-02-01T09:51:56;29.23;;;4.72;;
47161;SDS011;32921;53.256;8.198;2023-02-01T09:54:26;21.88;;;4.13;;
47161;SDS011;32921;53.256;8.198;2023-02-01T09:57:11;22.88;;;3.65;;
47161;SDS011;32921;53.256;8.198;2023-02-01T09:59:46;22.45;;;4.55;;
47161;SDS011;32921;53.256;8.198;2023-02-01T10:02:20;33.97;;;4.25;;
47161;SDS011;32921;53.256;8.198;2023-02-01T10:04:48;33.65;;;6.70;;
47161;SDS011;32921;53.256;8.198;2023-02-01T10:10:28;32.58;;;5.10;;
47161;SDS011;32921;53.256;8.198;2023-02-01T10:21:46;27.13;;;4.43;;
47161;SDS011;32921;53.256;8.198;2023-02-01T10:24:34;19.15;;;3.35;;
47161;SDS011;32921;53.256;8.198;2023-02-01T10:27:13;24.35;;;4.03;;
47161;SDS011;32921;53.256;8.198;2023-02-01T10:29:46;32.90;;;5.05;;
47161;SDS011;32921;53.256;8.198;2023-02-01T10:32:21;25.48;;;4.10;;
47161;SDS011;32921;53.256;8.198;2023-02-01T10:34:58;36.17;;;4.70;;
47161;SDS011;32921;53.256;8.198;2023-02-01T10:37:27;26.50;;;4.57;;
47161;SDS011;32921;53.256;8.198;2023-02-01T10:39:55;40.53;;;4.45;;
47161;SDS011;32921;53.256;8.198;2023-02-01T10:42:24;31.70;;;4.30;;
47161;SDS011;32921;53.256;8.198;2023-02-01T10:44:51;23.05;;;3.58;;
47161;SDS011;32921;53.256;8.198;2023-02-01T10:47:19;29.67;;;4.88;;
47161;SDS011;32921;53.256;8.198;2023-02-01T10:52:50;21.05;;;3.25;;
47161;SDS011;32921;53.256;8.198;2023-02-01T10:55:29;28.52;;;4.45;;
47161;SDS011;32921;53.256;8.198;2023-02-01T10:58:20;21.00;;;3.28;;
47161;SDS011;32921;53.256;8.198;2023-02-01T11:00:53;26.40;;;4.07;;
47161;SDS011;32921;53.256;8.198;2023-02-01T11:03:31;30.23;;;4.18;;
47161;SDS011;32921;53.256;8.198;2023-02-01T11:14:35;21.00;;;3.53;;
47161;SDS011;32921;53.256;8.198;2023-02-01T11:17:12;20.30;;;3.10;;
47161;SDS011;32921;53.256;8.198;2023-02-01T11:19:59;13.70;;;2.08;;
47161;SDS011;32921;53.256;8.198;2023-02-01T11:22:27;8.13;;;1.85;;
47161;SDS011;32921;53.256;8.198;2023-02-01T11:24:54;19.23;;;3.45;;
47161;SDS011;32921;53.256;8.198;2023-02-01T11:27:20;15.35;;;2.30;;
47161;SDS011;32921;53.256;8.198;2023-02-01T11:29:51;10.98;;;2.53;;
47161;SDS011;32921;53.256;8.198;2023-02-01T11:32:21;11.50;;;2.80;;
47161;SDS011;32921;53.256;8.198;2023-02-01T11:34:50;14.15;;;3.08;;
47161;SDS011;32921;53.256;8.198;2023-02-01T11:37:20;15.60;;;3.20;;
47161;SDS011;32921;53.256;8.198;2023-02-01T11:39:56;23.63;;;3.70;;
47161;SDS011;32921;53.256;8.198;2023-02-01T11:42:26;22.70;;;3.80;;
47161;SDS011;32921;53.256;8.198;2023-02-01T11:47:42;21.50;;;3.67;;
47161;SDS011;32921;53.256;8.198;2023-02-01T11:50:18;15.82;;;2.78;;
47161;SDS011;32921;53.256;8.198;2023-02-01T12:01:13;2.67;;;0.50;;
47161;SDS011;32921;53.256;8.198;2023-02-01T12:06:51;2.05;;;0.50;;
47161;SDS011;32921;53.256;8.198;2023-02-01T12:12:31;2.70;;;0.57;;
47161;SDS011;32921;53.256;8.198;2023-02-01T12:18:24;1.98;;;1.00;;
47161;SDS011;32921;53.256;8.198;2023-02-01T12:27:01;4.03;;;0.85;;
47161;SDS011;32921;53.256;8.198;2023-02-01T12:32:35;7.50;;;2.95;;
47161;SDS011;32921;53.256;8.198;2023-02-01T12:38:15;7.90;;;1.08;;
47161;SDS011;32921;53.256;8.198;2023-02-01T12:40:47;8.15;;;1.23;;
47161;SDS011;32921;53.256;8.198;2023-02-01T12:46:13;7.13;;;1.58;;
47161;SDS011;32921;53.256;8.198;2023-02-01T12:48:47;8.23;;;0.88;;
47161;SDS011;32921;53.256;8.198;2023-02-01T12:51:19;15.05;;;1.13;;
47161;SDS011;32921;53.256;8.198;2023-02-01T12:54:15;6.38;;;1.02;;
47161;SDS011;32921;53.256;8.198;2023-02-01T12:56:50;16.38;;;1.58;;
47161;SDS011;32921;53.256;8.198;2023-02-01T12:59:34;12.52;;;2.30;;
47161;SDS011;32921;53.256;8.198;2023-02-01T13:05:14;15.68;;;1.80;;
47161;SDS011;32921;53.256;8.198;2023-02-01T13:07:48;9.35;;;1.33;;
47161;SDS011;32921;53.256;8.198;2023-02-01T13:13:04;13.25;;;1.90;;
47161;SDS011;32921;53.256;8.198;2023-02-01T13:15:36;10.98;;;1.50;;
47161;SDS011;32921;53.256;8.198;2023-02-01T13:18:05;16.67;;;1.75;;
47161;SDS011;32921;53.256;8.198;2023-02-01T13:20:43;12.65;;;1.35;;
47161;SDS011;32921;53.256;8.198;2023-02-01T13:23:33;10.65;;;1.67;;
47161;SDS011;32921;53.256;8.198;2023-02-01T13:26:01;19.05;;;1.98;;
47161;SDS011;32921;53.256;8.198;2023-02-01T13:28:40;12.57;;;1.58;;
47161;SDS011;32921;53.256;8.198;2023-02-01T13:31:30;19.05;;;2.08;;
47161;SDS011;32921;53.256;8.198;2023-02-01T13:41:58;14.65;;;2.33;;
47161;SDS011;32921;53.256;8.198;2023-02-01T13:44:31;11.93;;;1.75;;
47161;SDS011;32921;53.256;8.198;2023-02-01T13:47:08;16.25;;;1.77;;
47161;SDS011;32921;53.256;8.198;2023-02-01T13:49:46;12.65;;;1.92;;
47161;SDS011;32921;53.256;8.198;2023-02-01T13:52:24;15.93;;;2.17;;
47161;SDS011;32921;53.256;8.198;2023-02-01T13:54:58;18.70;;;2.28;;
47161;SDS011;32921;53.256;8.198;2023-02-01T13:57:40;18.88;;;2.92;;
47161;SDS011;32921;53.256;8.198;2023-02-01T14:00:27;25.55;;;3.10;;
47161;SDS011;32921;53.256;8.198;2023-02-01T14:11:05;20.88;;;3.60;;
47161;SDS011;32921;53.256;8.198;2023-02-01T14:21:19;33.33;;;3.95;;
47161;SDS011;32921;53.256;8.198;2023-02-01T14:24:02;33.03;;;4.15;;
47161;SDS011;32921;53.256;8.198;2023-02-01T14:26:45;32.58;;;4.20;;
47161;SDS011;32921;53.256;8.198;2023-02-01T14:37:26;37.10;;;5.57;;
47161;SDS011;32921;53.256;8.198;2023-02-01T14:42:14;22.63;;;2.90;;
47161;SDS011;32921;53.256;8.198;2023-02-01T14:44:41;31.10;;;4.63;;
47161;SDS011;32921;53.256;8.198;2023-02-01T14:47:08;30.38;;;5.35;;
47161;SDS011;32921;53.256;8.198;2023-02-01T14:52:22;30.25;;;3.97;;
47161;SDS011;32921;53.256;8.198;2023-02-01T14:54:55;25.65;;;3.42;;
47161;SDS011;32921;53.256;8.198;2023-02-01T14:57:24;28.55;;;4.03;;
47161;SDS011;32921;53.256;8.198;2023-02-01T14:59:53;13.52;;;2.47;;
47161;SDS011;32921;53.256;8.198;2023-02-01T15:02:30;31.85;;;4.60;;
47161;SDS011;32921;53.256;8.198;2023-02-01T15:05:00;15.30;;;2.55;;
47161;SDS011;32921;53.256;8.198;2023-02-01T15:07:25;28.92;;;4.75;;
47161;SDS011;32921;53.256;8.198;2023-02-01T15:09:53;22.73;;;3.80;;
47161;SDS011;32921;53.256;8.198;2023-02-01T15:12:26;31.95;;;4.60;;
47161;SDS011;32921;53.256;8.198;2023-02-01T15:17:42;36.03;;;4.78;;
47161;SDS011;32921;53.256;8.198;2023-02-01T15:22:52;37.88;;;5.10;;
47161;SDS011;32921;53.256;8.198;2023-02-01T15:25:20;27.52;;;4.45;;
47161;SDS011;32921;53.256;8.198;2023-02-01T15:27:48;42.72;;;6.45;;
47161;SDS011;32921;53.256;8.198;2023-02-01T15:30:25;33.75;;;5.25;;
47161;SDS011;32921;53.256;8.198;2023-02-01T15:33:04;24.92;;;4.13;;
47161;SDS011;32921;53.256;8.198;2023-02-01T15:35:42;32.47;;;5.43;;
47161;SDS011;32921;53.256;8.198;2023-02-01T15:38:19;14.38;;;2.38;;
47161;SDS011;32921;53.256;8.198;2023-02-01T15:46:30;9.70;;;1.73;;
47161;SDS011;32921;53.256;8.198;2023-02-01T15:48:58;9.73;;;1.40;;
47161;SDS011;32921;53.256;8.198;2023-02-01T15:51:25;14.57;;;2.03;;
47161;SDS011;32921;53.256;8.198;2023-02-01T15:53:58;11.70;;;2.67;;
47161;SDS011;32921;53.256;8.198;2023-02-01T15:56:35;9.80;;;2.38;;
47161;SDS011;32921;53.256;8.198;2023-02-01T15:59:03;11.77;;;1.90;;
47161;SDS011;32921;53.256;8.198;2023-02-01T16:01:36;9.05;;;1.90;;
47161;SDS011;32921;53.256;8.198;2023-02-01T16:06:49;16.80;;;1.92;;
47161;SDS011;32921;53.256;8.198;2023-02-01T16:09:20;7.70;;;1.45;;
47161;SDS011;32921;53.256;8.198;2023-02-01T16:11:54;10.43;;;1.58;;
47161;SDS011;32921;53.256;8.198;2023-02-01T16:14:24;12.73;;;2.13;;
47161;SDS011;32921;53.256;8.198;2023-02-01T16:16:50;18.33;;;2.30;;
47161;SDS011;32921;53.256;8.198;2023-02-01T16:19:17;16.17;;;2.83;;
47161;SDS011;32921;53.256;8.198;2023-02-01T16:21:43;24.92;;;3.00;;
47161;SDS011;32921;53.256;8.198;2023-02-01T16:24:08;27.02;;;3.47;;
47161;SDS011;32921;53.256;8.198;2023-02-01T16:26:34;20.63;;;2.13;;
47161;SDS011;32921;53.256;8.198;2023-02-01T16:29:00;26.83;;;2.70;;
47161;SDS011;32921;53.256;8.198;2023-02-01T16:31:29;24.08;;;3.28;;
47161;SDS011;32921;53.256;8.198;2023-02-01T16:33:56;21.70;;;3.08;;
47161;SDS011;32921;53.256;8.198;2023-02-01T16:36:22;21.75;;;2.63;;
47161;SDS011;32921;53.256;8.198;2023-02-01T16:38:49;33.78;;;4.00;;
47161;SDS011;32921;53.256;8.198;2023-02-01T16:41:16;25.02;;;3.70;;
47161;SDS011;32921;53.256;8.198;2023-02-01T16:43:43;30.58;;;4.65;;
47161;SDS011;32921;53.256;8.198;2023-02-01T16:46:13;29.33;;;4.50;;
47161;SDS011;32921;53.256;8.198;2023-02-01T16:48:41;37.80;;;5.50;;
47161;SDS011;32921;53.256;8.198;2023-02-01T16:51:11;41.60;;;4.95;;
47161;SDS011;32921;53.256;8.198;2023-02-01T16:53:38;37.28;;;6.13;;
47161;SDS011;32921;53.256;8.198;2023-02-01T16:56:09;35.15;;;3.63;;
47161;SDS011;32921;53.256;8.198;2023-02-01T16:58:39;32.30;;;6.28;;
47161;SDS011;32921;53.256;8.198;2023-02-01T17:01:07;34.42;;;4.63;;
47161;SDS011;32921;53.256;8.198;2023-02-01T17:03:34;30.17;;;4.25;;
47161;SDS011;32921;53.256;8.198;2023-02-01T17:05:59;30.10;;;4.55;;
47161;SDS011;32921;53.256;8.198;2023-02-01T17:08:29;36.97;;;5.18;;
47161;SDS011;32921;53.256;8.198;2023-02-01T17:11:01;36.92;;;4.18;;
47161;SDS011;32921;53.256;8.198;2023-02-01T17:13:27;43.05;;;5.45;;
47161;SDS011;32921;53.256;8.198;2023-02-01T17:18:19;30.65;;;4.30;;
47161;SDS011;32921;53.256;8.198;2023-02-01T17:20:44;26.70;;;4.20;;
47161;SDS011;32921;53.256;8.198;2023-02-01T17:23:12;27.55;;;3.22;;
47161;SDS011;32921;53.256;8.198;2023-02-01T17:25:39;24.23;;;3.65;;
47161;SDS011;32921;53.256;8.198;2023-02-01T17:28:04;25.40;;;3.60;;
47161;SDS011;32921;53.256;8.198;2023-02-01T17:30:30;40.65;;;4.95;;
47161;SDS011;32921;53.256;8.198;2023-02-01T17:32:56;28.00;;;3.83;;